createdAt,value
2018-03-07T00:00:11.977Z,92761.24
2018-03-07T00:02:40.248Z,92762.16
2018-03-07T00:05:09.272Z,92769.89
2018-03-07T00:07:37.547Z,92769.09
2018-03-07T00:10:06.568Z,92766.84
2018-03-07T00:12:34.836Z,92770.56
2018-03-07T00:15:03.858Z,92773.94
2018-03-07T00:17:32.132Z,92766.08
2018-03-07T00:20:01.156Z,92770.77
2018-03-07T00:22:29.423Z,92769.80
2018-03-07T00:24:58.446Z,92767.61
2018-03-07T00:27:26.719Z,92770.08
2018-03-07T00:29:55.744Z,92764.66
2018-03-07T00:32:24.015Z,92764.44
2018-03-07T00:34:53.040Z,92767.58
2018-03-07T00:37:21.315Z,92763.34
2018-03-07T00:39:50.336Z,92756.89
2018-03-07T00:42:18.607Z,92767.42
2018-03-07T00:44:47.631Z,92762.05
2018-03-07T00:47:15.900Z,92763.76
2018-03-07T00:49:44.920Z,92762.88
2018-03-07T00:52:13.191Z,92762.21
2018-03-07T00:54:42.219Z,92761.55
2018-03-07T00:57:10.480Z,92756.25
2018-03-07T00:59:38.743Z,92765.11
2018-03-07T01:02:07.007Z,92768.27
2018-03-07T01:04:35.267Z,92768.00
2018-03-07T01:07:03.577Z,92773.36
2018-03-07T01:09:31.815Z,92766.91
2018-03-07T01:12:00.076Z,92771.26
2018-03-07T01:14:28.342Z,92769.52
2018-03-07T01:16:56.595Z,92771.65
2018-03-07T01:19:25.632Z,92770.06
2018-03-07T01:21:53.886Z,92764.59
2018-03-07T01:24:22.920Z,92768.66
2018-03-07T01:26:51.177Z,92763.83
2018-03-07T01:29:20.209Z,92761.09
2018-03-07T01:31:48.464Z,92761.84
2018-03-07T01:34:16.727Z,92767.50
2018-03-07T01:36:44.988Z,92751.73
2018-03-07T01:39:13.260Z,92760.23
2018-03-07T01:41:41.527Z,92758.47
2018-03-07T01:44:10.563Z,92758.68
2018-03-07T01:46:38.820Z,92761.50
2018-03-07T01:49:07.855Z,92759.25
2018-03-07T01:51:53.891Z,92759.28
2018-03-07T01:54:22.234Z,92754.64
2018-03-07T01:56:51.255Z,92755.66
2018-03-07T01:59:19.520Z,92754.83
2018-03-07T02:01:48.547Z,92752.53
2018-03-07T02:04:16.820Z,92750.38
2018-03-07T02:06:45.853Z,92758.56
2018-03-07T02:09:14.892Z,92746.03
2018-03-07T02:11:43.154Z,92749.31
2018-03-07T02:14:11.451Z,92741.38
2018-03-07T02:16:39.714Z,92750.70
2018-03-07T02:19:07.988Z,92744.56
2018-03-07T02:21:37.015Z,92744.80
2018-03-07T02:24:05.287Z,92746.27
2018-03-07T02:26:33.547Z,92745.90
2018-03-07T02:29:01.815Z,92743.08
2018-03-07T02:31:30.089Z,92741.49
2018-03-07T02:33:58.357Z,92732.58
2018-03-07T02:36:33.267Z,92734.19
2018-03-07T02:39:02.312Z,92735.34
2018-03-07T02:41:30.575Z,92726.42
2018-03-07T02:43:59.613Z,92732.06
2018-03-07T02:46:27.879Z,92731.23
2018-03-07T02:48:56.160Z,92727.77
2018-03-07T02:51:25.189Z,92726.52
2018-03-07T02:53:53.531Z,92730.22
2018-03-07T02:56:22.493Z,92728.12
2018-03-07T02:58:50.769Z,92725.56
2018-03-07T03:01:19.032Z,92723.59
2018-03-07T03:03:48.064Z,92718.44
2018-03-07T03:06:16.330Z,92727.05
2018-03-07T03:08:45.359Z,92719.84
2018-03-07T03:11:13.621Z,92724.76
2018-03-07T03:13:42.659Z,92727.25
2018-03-07T03:16:10.933Z,92730.85
2018-03-07T03:18:39.203Z,92729.67
2018-03-07T03:21:08.227Z,92729.20
2018-03-07T03:23:36.499Z,92728.97
2018-03-07T03:26:05.525Z,92728.27
2018-03-07T03:28:33.803Z,92723.64
2018-03-07T03:31:02.065Z,92730.73
2018-03-07T03:33:30.353Z,92731.37
2018-03-07T03:35:58.616Z,92727.09
2018-03-07T03:38:26.888Z,92729.06
2018-03-07T03:40:55.151Z,92732.16
2018-03-07T03:43:23.436Z,92736.72
2018-03-07T03:45:51.695Z,92734.29
2018-03-07T03:48:19.972Z,92739.56
2018-03-07T03:50:48.316Z,92738.33
2018-03-07T03:53:16.583Z,92738.92
2018-03-07T03:55:45.611Z,92744.03
2018-03-07T03:58:13.893Z,92746.38
2018-03-07T04:00:42.156Z,92743.89
2018-03-07T04:03:11.203Z,92745.16
2018-03-07T04:05:39.463Z,92747.28
2018-03-07T04:08:08.516Z,92746.11
2018-03-07T04:10:36.783Z,92751.30
2018-03-07T04:13:05.832Z,92747.20
2018-03-07T04:15:34.087Z,92750.48
2018-03-07T04:18:02.356Z,92754.97
2018-03-07T04:20:30.643Z,92752.66
2018-03-07T04:22:58.899Z,92751.16
2018-03-07T04:25:27.993Z,92755.10
2018-03-07T04:27:56.214Z,92748.61
2018-03-07T04:30:25.252Z,92757.51
2018-03-07T04:32:53.520Z,92759.59
2018-03-07T04:35:21.796Z,92764.44
2018-03-07T04:37:50.819Z,92762.30
2018-03-07T04:40:19.099Z,92769.26
2018-03-07T04:42:47.367Z,92760.42
2018-03-07T04:45:16.409Z,92766.58
2018-03-07T04:47:45.309Z,92771.35
2018-03-07T04:50:13.578Z,92763.34
2018-03-07T04:52:41.844Z,92771.05
2018-03-07T04:55:10.116Z,92767.06
2018-03-07T04:57:38.392Z,92770.36
2018-03-07T05:00:06.668Z,92762.87
2018-03-07T05:02:35.003Z,92768.35
2018-03-07T05:05:03.249Z,92763.39
2018-03-07T05:07:31.511Z,92761.69
2018-03-07T05:09:59.783Z,92766.70
2018-03-07T05:12:28.807Z,92763.48
2018-03-07T05:14:57.847Z,92773.11
2018-03-07T05:17:26.312Z,92773.66
2018-03-07T05:19:54.584Z,92765.55
2018-03-07T05:22:22.848Z,92768.08
2018-03-07T05:24:51.119Z,92756.09
2018-03-07T05:27:19.377Z,92767.05
2018-03-07T05:29:47.648Z,92769.07
2018-03-07T05:32:15.906Z,92769.19
2018-03-07T05:34:44.947Z,92775.68
2018-03-07T05:37:13.207Z,92759.92
2018-03-07T05:39:42.236Z,92767.85
2018-03-07T05:42:10.511Z,92764.91
2018-03-07T05:44:39.556Z,92766.09
2018-03-07T05:47:07.812Z,92768.52
2018-03-07T05:49:36.084Z,92766.28
2018-03-07T05:52:05.111Z,92765.78
2018-03-07T05:54:34.569Z,92778.37
2018-03-07T05:57:02.823Z,92775.61
2018-03-07T05:59:31.097Z,92761.06
2018-03-07T06:02:00.127Z,92771.91
2018-03-07T06:04:28.402Z,92770.28
2018-03-07T06:06:56.665Z,92775.77
2018-03-07T06:09:25.728Z,92775.34
2018-03-07T06:11:53.988Z,92769.70
2018-03-07T06:14:22.258Z,92779.62
2018-03-07T06:16:51.285Z,92778.89
2018-03-07T06:19:19.551Z,92781.69
2018-03-07T06:21:48.584Z,92786.73
2018-03-07T06:26:52.320Z,92789.59
2018-03-07T06:29:20.546Z,92803.95
2018-03-07T06:31:48.808Z,92796.88
2018-03-07T06:34:17.080Z,92805.95
2018-03-07T06:36:45.339Z,92811.97
2018-03-07T06:39:13.616Z,92809.36
2018-03-07T06:41:42.865Z,92812.42
2018-03-07T06:44:11.903Z,92804.37
2018-03-07T06:46:40.164Z,92806.62
2018-03-07T06:49:08.434Z,92812.94
2018-03-07T06:51:37.467Z,92814.50
2018-03-07T06:54:05.744Z,92818.22
2018-03-07T06:56:34.007Z,92816.36
2018-03-07T06:59:02.272Z,92826.00
2018-03-07T07:01:30.532Z,92825.25
2018-03-07T07:03:58.791Z,92832.31
2018-03-07T07:06:27.068Z,92834.33
2018-03-07T07:08:56.092Z,92832.53
2018-03-07T07:11:25.267Z,92841.63
2018-03-07T07:13:53.528Z,92849.06
2018-03-07T07:16:21.792Z,92844.86
2018-03-07T07:18:50.047Z,92850.74
2018-03-07T07:21:19.088Z,92853.39
2018-03-07T07:23:47.350Z,92860.27
2018-03-07T07:26:16.379Z,92857.58
2018-03-07T07:28:44.640Z,92860.89
2018-03-07T07:31:13.674Z,92866.35
2018-03-07T07:33:41.941Z,92867.74
2018-03-07T07:36:10.973Z,92868.52
2018-03-07T07:38:43.748Z,92872.76
2018-03-07T07:41:12.025Z,92873.95
2018-03-07T07:43:41.052Z,92875.30
2018-03-07T07:46:09.324Z,92879.75
2018-03-07T07:48:38.360Z,92877.00
2018-03-07T07:51:06.624Z,92879.16
2018-03-07T07:53:35.651Z,92885.16
2018-03-07T07:56:03.919Z,92878.62
2018-03-07T07:58:32.188Z,92875.66
2018-03-07T08:01:02.147Z,92883.39
2018-03-07T08:03:30.411Z,92877.77
2018-03-07T08:05:59.496Z,92878.55
2018-03-07T08:08:27.706Z,92886.82
2018-03-07T08:10:56.739Z,92889.63
2018-03-07T08:13:25.000Z,92893.30
2018-03-07T08:15:54.045Z,92900.53
2018-03-07T08:18:22.313Z,92900.70
2018-03-07T08:20:51.413Z,92898.17
2018-03-07T08:23:20.440Z,92904.97
2018-03-07T08:25:48.711Z,92912.63
2018-03-07T08:28:16.981Z,92909.55
2018-03-07T08:30:45.247Z,92914.00
2018-03-07T08:33:13.615Z,92919.39
2018-03-07T08:35:41.935Z,92922.86
2018-03-07T08:38:10.151Z,92927.56
2018-03-07T08:40:39.180Z,92930.84
2018-03-07T08:43:07.440Z,92930.40
2018-03-07T08:45:36.481Z,92931.52
2018-03-07T08:48:04.749Z,92933.23
2018-03-07T08:50:33.780Z,92937.66
2018-03-07T08:53:02.036Z,92934.01
2018-03-07T08:55:31.070Z,92935.34
2018-03-07T08:57:59.328Z,92939.22
2018-03-07T09:00:28.358Z,92940.44
2018-03-07T09:02:56.619Z,92939.27
2018-03-07T09:05:25.651Z,92949.63
2018-03-07T09:07:53.915Z,92956.17
2018-03-07T09:10:22.951Z,92949.14
2018-03-07T09:12:51.219Z,92952.67
2018-03-07T09:15:20.259Z,92960.11
2018-03-07T09:17:48.515Z,92960.35
2018-03-07T09:20:17.556Z,92965.31
2018-03-07T09:22:45.819Z,92972.20
2018-03-07T09:25:14.092Z,92962.03
2018-03-07T09:27:43.127Z,92969.45
2018-03-07T09:30:12.163Z,92965.29
2018-03-07T09:32:40.420Z,92967.31
2018-03-07T09:35:08.695Z,92969.91
2018-03-07T09:37:36.956Z,92975.01
2018-03-07T09:40:05.353Z,92978.30
2018-03-07T09:42:34.380Z,92974.88
2018-03-07T09:45:02.829Z,92980.57
2018-03-07T09:47:31.098Z,92973.63
2018-03-07T09:49:59.363Z,92979.77
2018-03-07T09:52:27.624Z,92985.66
2018-03-07T09:54:56.656Z,92984.31
2018-03-07T09:57:24.927Z,92979.61
2018-03-07T09:59:53.948Z,92978.56
2018-03-07T10:02:22.219Z,92972.45
2018-03-07T10:04:51.250Z,92979.14
2018-03-07T10:07:19.523Z,92980.86
2018-03-07T10:09:47.780Z,92988.02
2018-03-07T10:12:16.047Z,92989.14
2018-03-07T10:14:44.313Z,92996.22
2018-03-07T10:17:12.588Z,92992.23
2018-03-07T10:19:41.609Z,92993.55
2018-03-07T10:22:09.880Z,92989.34
2018-03-07T10:24:38.136Z,93001.03
2018-03-07T10:27:06.412Z,93003.50
2018-03-07T10:29:34.679Z,93009.06
2018-03-07T10:32:02.935Z,93001.33
2018-03-07T10:34:31.193Z,93006.18
2018-03-07T10:37:00.225Z,92994.41
2018-03-07T10:39:28.487Z,93006.81
2018-03-07T10:41:57.524Z,93007.89
2018-03-07T10:44:25.783Z,93013.07
2018-03-07T10:46:54.828Z,93016.83
2018-03-07T10:49:23.087Z,93014.03
2018-03-07T10:51:52.128Z,93013.95
2018-03-07T10:54:20.387Z,93022.98
2018-03-07T10:56:49.887Z,93018.30
2018-03-07T10:59:18.911Z,93013.63
2018-03-07T11:01:47.951Z,93020.89
2018-03-07T11:04:16.217Z,93020.89
2018-03-07T11:06:44.483Z,93018.05
2018-03-07T11:09:13.508Z,93011.86
2018-03-07T11:11:41.779Z,93011.39
2018-03-07T11:14:10.809Z,93011.70
2018-03-07T11:16:39.079Z,93014.73
2018-03-07T11:19:08.103Z,93018.92
2018-03-07T11:21:36.376Z,93024.67
2018-03-07T11:24:05.400Z,93016.94
2018-03-07T11:26:33.671Z,93024.09
2018-03-07T11:29:02.707Z,93020.30
2018-03-07T11:31:30.971Z,93025.77
2018-03-07T11:33:59.237Z,93032.02
2018-03-07T11:36:27.508Z,93036.01
2018-03-07T11:38:55.772Z,93025.73
2018-03-07T11:41:24.043Z,93028.59
2018-03-07T11:43:52.308Z,93026.14
2018-03-07T11:46:20.588Z,93033.80
2018-03-07T11:48:49.619Z,93035.45
2018-03-07T11:51:17.891Z,93030.39
2018-03-07T11:53:46.923Z,93032.13
2018-03-07T11:56:15.192Z,93037.16
2018-03-07T11:58:43.459Z,93030.32
2018-03-07T12:01:11.732Z,93039.21
2018-03-07T12:03:39.999Z,93036.28
2018-03-07T12:06:08.272Z,93045.38
2018-03-07T12:08:36.537Z,93047.42
2018-03-07T12:11:04.804Z,93046.68
2018-03-07T12:13:33.828Z,93046.78
2018-03-07T12:16:02.108Z,93045.27
2018-03-07T12:18:31.131Z,93048.20
2018-03-07T12:20:59.390Z,93045.16
2018-03-07T12:23:28.420Z,93048.77
2018-03-07T12:25:56.675Z,93054.16
2018-03-07T12:28:24.948Z,93047.11
2018-03-07T12:30:53.223Z,93048.88
2018-03-07T12:33:21.487Z,93054.34
2018-03-07T12:35:49.752Z,93057.55
2018-03-07T12:38:18.790Z,93060.45
2018-03-07T12:40:47.047Z,93064.31
2018-03-07T12:43:16.084Z,93067.41
2018-03-07T12:45:44.343Z,93071.03
2018-03-07T12:48:13.379Z,93063.70
2018-03-07T12:50:41.636Z,93066.37
2018-03-07T12:53:10.672Z,93061.16
2018-03-07T12:55:39.696Z,93054.41
2018-03-07T12:58:07.969Z,93055.78
2018-03-07T13:00:36.222Z,93055.40
2018-03-07T13:03:05.255Z,93057.05
2018-03-07T13:05:33.519Z,93052.77
2018-03-07T13:08:02.551Z,93053.06
2018-03-07T13:10:30.811Z,93057.84
2018-03-07T13:12:59.851Z,93064.93
2018-03-07T13:15:28.101Z,93066.91
2018-03-07T13:17:57.136Z,93065.08
2018-03-07T13:20:25.392Z,93065.67
2018-03-07T13:22:53.656Z,93052.83
2018-03-07T13:25:21.917Z,93059.98
2018-03-07T13:27:50.179Z,93055.30
2018-03-07T13:30:18.478Z,93064.59
2018-03-07T13:32:46.703Z,93058.05
2018-03-07T13:35:14.963Z,93062.80
2018-03-07T13:37:43.228Z,93061.34
2018-03-07T13:40:12.252Z,93068.03
2018-03-07T13:42:40.516Z,93058.14
2018-03-07T13:45:08.771Z,93064.02
2018-03-07T13:47:37.035Z,93059.14
2018-03-07T13:50:06.056Z,93055.16
2018-03-07T13:52:34.319Z,93061.30
2018-03-07T13:55:02.576Z,93065.41
2018-03-07T13:57:31.608Z,93069.62
2018-03-07T13:59:59.860Z,93073.13
2018-03-07T14:02:28.888Z,93066.95
2018-03-07T14:04:57.156Z,93069.36
2018-03-07T14:07:26.184Z,93072.20
2018-03-07T14:09:54.435Z,93075.16
2018-03-07T14:12:22.699Z,93068.00
2018-03-07T14:14:50.961Z,93075.77
2018-03-07T14:17:19.223Z,93077.58
2018-03-07T14:19:48.244Z,93075.79
2018-03-07T14:22:16.512Z,93068.73
2018-03-07T14:24:45.535Z,93065.83
2018-03-07T14:27:13.802Z,93069.31
2018-03-07T14:29:42.052Z,93071.39
2018-03-07T14:32:10.315Z,93065.86
2018-03-07T14:34:38.579Z,93072.31
2018-03-07T14:37:07.597Z,93078.28
2018-03-07T14:39:35.851Z,93075.39
2018-03-07T14:42:04.108Z,93076.15
2018-03-07T14:44:32.372Z,93076.47
2018-03-07T14:47:00.627Z,93081.16
2018-03-07T14:49:30.159Z,93074.27
2018-03-07T14:51:59.185Z,93075.94
2018-03-07T14:54:27.452Z,93078.25
2018-03-07T14:56:56.475Z,93081.58
2018-03-07T14:59:25.266Z,93079.31
2018-03-07T15:01:54.327Z,93086.23
2018-03-07T15:04:22.593Z,93079.92
2018-03-07T15:06:50.851Z,93093.13
2018-03-07T15:09:19.127Z,93091.23
2018-03-07T15:11:48.148Z,93096.14
2018-03-07T15:14:16.420Z,93097.62
2018-03-07T15:16:45.513Z,93092.48
2018-03-07T15:19:13.712Z,93098.23
2018-03-07T15:21:45.286Z,93099.42
2018-03-07T15:24:13.740Z,93106.59
2018-03-07T15:26:42.005Z,93111.31
2018-03-07T15:29:10.276Z,93105.63
2018-03-07T15:31:38.536Z,93109.92
2018-03-07T15:34:07.572Z,93116.53
2018-03-07T15:36:35.836Z,93116.23
2018-03-07T15:39:04.876Z,93122.31
2018-03-07T15:41:33.512Z,93120.67
2018-03-07T15:44:01.790Z,93108.13
2018-03-07T15:46:30.053Z,93117.97
2018-03-07T15:48:58.320Z,93118.89
2018-03-07T15:51:26.583Z,93116.58
2018-03-07T15:53:55.613Z,93118.67
2018-03-07T15:56:23.868Z,93123.45
2018-03-07T15:58:52.139Z,93122.52
2018-03-07T16:01:20.403Z,93117.23
2018-03-07T16:03:48.677Z,93128.44
2018-03-07T16:06:17.088Z,93125.80
2018-03-07T16:08:45.356Z,93127.70
2018-03-07T16:11:13.615Z,93142.36
2018-03-07T16:13:42.652Z,93142.86
2018-03-07T16:16:10.911Z,93147.78
2018-03-07T16:18:39.941Z,93153.07
2018-03-07T16:21:08.205Z,93143.45
2018-03-07T16:23:38.319Z,93154.52
2018-03-07T16:26:06.574Z,93158.61
2018-03-07T16:28:35.024Z,93162.19
2018-03-07T16:31:03.284Z,93161.00
2018-03-07T16:33:31.552Z,93163.11
2018-03-07T16:35:59.818Z,93167.73
2018-03-07T16:38:28.840Z,93165.86
2018-03-07T16:40:57.106Z,93170.99
2018-03-07T16:43:25.366Z,93169.75
2018-03-07T16:45:54.399Z,93172.72
2018-03-07T16:48:22.656Z,93176.30
2018-03-07T16:50:51.688Z,93177.89
2018-03-07T16:53:19.942Z,93177.34
2018-03-07T16:55:48.971Z,93182.50
2018-03-07T16:58:17.224Z,93180.13
2018-03-07T17:00:45.495Z,93183.18
2018-03-07T17:03:13.747Z,93185.92
2018-03-07T17:05:42.037Z,93195.21
2018-03-07T17:08:10.292Z,93196.90
2018-03-07T17:10:39.312Z,93195.91
2018-03-07T17:13:08.343Z,93198.16
2018-03-07T17:15:36.603Z,93200.37
2018-03-07T17:18:05.631Z,93203.52
2018-03-07T17:20:33.896Z,93211.36
2018-03-07T17:23:02.931Z,93210.12
2018-03-07T17:25:31.187Z,93213.38
2018-03-07T17:28:00.228Z,93214.06
2018-03-07T17:30:28.486Z,93220.16
2018-03-07T17:32:57.515Z,93219.33
2018-03-07T17:35:25.764Z,93228.97
2018-03-07T17:37:54.032Z,93229.95
2018-03-07T17:40:22.289Z,93236.86
2018-03-07T17:42:51.213Z,93233.26
2018-03-07T17:45:26.668Z,93236.16
2018-03-07T17:47:54.932Z,93241.57
2018-03-07T17:50:23.187Z,93244.08
2018-03-07T17:52:51.458Z,93240.93
2018-03-07T17:58:03.131Z,93252.26
2018-03-07T18:00:32.144Z,93252.12
2018-03-07T18:03:01.172Z,93258.95
2018-03-07T18:05:29.436Z,93266.25
2018-03-07T18:07:58.479Z,93261.20
2018-03-07T18:10:27.499Z,93264.63
2018-03-07T18:12:55.763Z,93268.39
2018-03-07T18:15:24.016Z,93267.84
2018-03-07T18:17:53.052Z,93269.87
2018-03-07T18:20:21.307Z,93269.72
2018-03-07T18:22:50.336Z,93273.77
2018-03-07T18:25:18.591Z,93271.78
2018-03-07T18:27:46.852Z,93267.04
2018-03-07T18:30:15.867Z,93264.83
2018-03-07T18:32:44.136Z,93270.57
2018-03-07T18:35:12.552Z,93270.08
2018-03-07T18:37:40.815Z,93278.61
2018-03-07T18:40:09.084Z,93278.82
2018-03-07T18:42:37.348Z,93274.27
2018-03-07T18:45:06.383Z,93277.58
2018-03-07T18:47:34.640Z,93281.80
2018-03-07T18:50:03.692Z,93278.64
2018-03-07T18:52:31.940Z,93276.30
2018-03-07T18:55:00.975Z,93278.86
2018-03-07T18:57:29.232Z,93278.05
2018-03-07T18:59:58.266Z,93276.58
2018-03-07T19:02:26.523Z,93271.21
2018-03-07T19:04:55.559Z,93273.81
2018-03-07T19:07:23.816Z,93280.30
2018-03-07T19:09:52.848Z,93275.46
2018-03-07T19:12:21.107Z,93278.52
2018-03-07T19:14:50.140Z,93286.84
2018-03-07T19:17:18.395Z,93284.27
2018-03-07T19:19:46.663Z,93275.92
2018-03-07T19:22:14.928Z,93284.54
2018-03-07T19:24:43.195Z,93285.80
2018-03-07T19:27:11.464Z,93286.61
2018-03-07T19:29:40.495Z,93292.08
2018-03-07T19:32:08.757Z,93289.45
2018-03-07T19:34:37.796Z,93295.02
2018-03-07T19:37:06.048Z,93291.83
2018-03-07T19:39:35.083Z,93296.77
2018-03-07T19:42:03.340Z,93294.22
2018-03-07T19:44:32.371Z,93298.89
2018-03-07T19:47:00.627Z,93300.06
2018-03-07T19:49:28.891Z,93307.16
2018-03-07T19:51:57.157Z,93302.64
2018-03-07T19:54:25.444Z,93311.40
2018-03-07T19:56:54.428Z,93308.50
2018-03-07T19:59:23.461Z,93307.03
2018-03-07T20:01:51.718Z,93311.07
2018-03-07T20:04:19.971Z,93300.92
2018-03-07T20:06:48.239Z,93309.73
2018-03-07T20:09:16.493Z,93308.41
2018-03-07T20:11:44.755Z,93307.77
2018-03-07T20:14:13.775Z,93308.66
2018-03-07T20:16:42.031Z,93304.72
2018-03-07T20:19:10.292Z,93306.81
2018-03-07T20:21:38.559Z,93317.34
2018-03-07T20:24:06.843Z,93310.77
2018-03-07T20:26:35.108Z,93313.18
2018-03-07T20:29:04.134Z,93323.61
2018-03-07T20:31:32.481Z,93326.17
2018-03-07T20:34:01.415Z,93323.78
2018-03-07T20:36:30.447Z,93317.84
2018-03-07T20:38:58.704Z,93320.36
2018-03-07T20:41:27.749Z,93327.66
2018-03-07T20:43:56.003Z,93332.19
2018-03-07T20:46:24.268Z,93340.03
2018-03-07T20:48:52.519Z,93330.05
2018-03-07T20:51:20.783Z,93332.05
2018-03-07T20:53:49.036Z,93330.03
2018-03-07T20:56:17.300Z,93332.66
2018-03-07T20:58:45.552Z,93326.92
2018-03-07T21:01:13.820Z,93334.61
2018-03-07T21:03:42.835Z,93338.42
2018-03-07T21:06:11.112Z,93340.78
2018-03-07T21:08:40.133Z,93335.67
2018-03-07T21:11:08.400Z,93345.92
2018-03-07T21:13:37.419Z,93340.73
2018-03-07T21:16:05.685Z,93338.58
2018-03-07T21:18:33.936Z,93340.77
2018-03-07T21:21:02.212Z,93344.41
2018-03-07T21:23:30.464Z,93342.67
2018-03-07T21:25:59.496Z,93343.66
2018-03-07T21:28:27.744Z,93340.86
2018-03-07T21:30:56.576Z,93343.00
2018-03-07T21:33:24.832Z,93349.30
2018-03-07T21:35:53.099Z,93344.40
2018-03-07T21:38:21.351Z,93345.24
2018-03-07T21:40:49.611Z,93352.52
2018-03-07T21:43:18.631Z,93357.92
2018-03-07T21:45:46.891Z,93352.50
2018-03-07T21:48:15.147Z,93350.29
2018-03-07T21:50:43.412Z,93352.75
2018-03-07T21:53:11.663Z,93344.76
2018-03-07T21:55:40.693Z,93349.07
2018-03-07T21:58:08.947Z,93350.23
2018-03-07T22:00:37.211Z,93348.75
2018-03-07T22:03:05.471Z,93349.05
2018-03-07T22:05:33.732Z,93359.29
2018-03-07T22:08:02.758Z,93362.19
2018-03-07T22:10:31.016Z,93364.63
2018-03-07T22:12:59.263Z,93365.78
2018-03-07T22:15:27.524Z,93362.07
2018-03-07T22:17:55.779Z,93362.23
2018-03-07T22:20:24.816Z,93363.91
2018-03-07T22:23:02.967Z,93366.61
2018-03-07T22:25:31.228Z,93371.05
2018-03-07T22:27:59.488Z,93373.56
2018-03-07T22:30:28.511Z,93376.29
2018-03-07T22:32:56.767Z,93364.98
2018-03-07T22:35:25.028Z,93368.20
2018-03-07T22:37:53.312Z,93379.30
2018-03-07T22:40:21.548Z,93375.40
2018-03-07T22:42:50.581Z,93380.95
2018-03-07T22:45:18.846Z,93380.72
2018-03-07T22:47:47.859Z,93375.02
2018-03-07T22:50:16.891Z,93384.21
2018-03-07T22:52:45.151Z,93379.13
2018-03-07T22:55:14.175Z,93381.27
2018-03-07T22:57:42.436Z,93380.50
2018-03-07T23:00:25.876Z,93377.79
2018-03-07T23:02:54.131Z,93389.13
2018-03-07T23:05:22.416Z,93381.96
2018-03-07T23:07:50.667Z,93384.44
2018-03-07T23:10:18.919Z,93385.75
2018-03-07T23:12:47.183Z,93392.70
2018-03-07T23:15:15.432Z,93397.98
2018-03-07T23:17:43.699Z,93392.41
2018-03-07T23:20:12.717Z,93395.72
2018-03-07T23:22:41.747Z,93402.18
2018-03-07T23:25:10.009Z,93394.74
2018-03-07T23:27:39.040Z,93396.80
2018-03-07T23:30:07.295Z,93401.41
2018-03-07T23:32:36.334Z,93403.73
2018-03-07T23:35:04.579Z,93404.67
2018-03-07T23:37:32.866Z,93407.08
2018-03-07T23:40:01.095Z,93404.86
2018-03-07T23:42:29.359Z,93408.20
2018-03-07T23:44:58.375Z,93414.73
2018-03-07T23:47:26.635Z,93404.42
2018-03-07T23:49:54.891Z,93409.93
2018-03-07T23:52:23.162Z,93408.56
2018-03-07T23:54:51.419Z,93420.05
2018-03-07T23:57:20.447Z,93414.63
2018-03-07T23:59:48.716Z,93416.38
